Time;durP1;ratioP1;P1;durP2;ratioP2;P2;SDS_P1;SDS_P2;PMS_P1;PMS_P2;Temp;Humidity;BMP_temperature;BMP_pressure;BME280_temperature;BME280_humidity;BME280_pressure;Samples;Min_cycle;Max_cycle;Signal;HPM_P1;HPM_P2
2023/10/07 00:01:50;;;;;;;9.37;5.20;;;;;;;16.17;79.55;101072.81;5106573;28;20225;-80
2023/10/07 00:04:17;;;;;;;9.93;5.00;;;;;;;16.17;79.75;101073.69;5106585;28;20307;-79
2023/10/07 00:06:45;;;;;;;8.63;4.97;;;;;;;16.16;79.85;101068.41;5103598;28;20231;-79
2023/10/07 00:09:15;;;;;;;8.67;4.57;;;;;;;16.14;80.21;101068.53;5104168;28;20209;-79
2023/10/07 00:11:46;;;;;;;9.67;4.70;;;;;;;16.15;80.25;101074.78;5110231;28;20237;-79
2023/10/07 00:14:14;;;;;;;7.47;5.17;;;;;;;16.13;80.26;101072.19;5106746;28;20191;-79
2023/10/07 00:16:43;;;;;;;7.07;4.60;;;;;;;16.14;80.37;101068.53;5114209;28;20275;-80
2023/10/07 00:19:09;;;;;;;9.23;5.00;;;;;;;16.12;80.35;101073.19;5109284;28;20201;-79
2023/10/07 00:21:55;;;;;;;8.63;4.80;;;;;;;16.13;80.33;101074.03;5112614;28;20230;-80
2023/10/07 00:24:25;;;;;;;13.03;4.53;;;;;;;16.14;80.37;101079.28;5111248;28;20205;-79
2023/10/07 00:26:52;;;;;;;9.73;5.33;;;;;;;16.11;80.28;101067.97;5111691;28;20246;-79
2023/10/07 00:29:21;;;;;;;9.17;4.60;;;;;;;16.10;80.44;101058.19;5114824;28;20213;-79
2023/10/07 00:31:52;;;;;;;5.40;3.67;;;;;;;16.10;80.20;101077.00;5104987;28;20322;-80
2023/10/07 00:34:26;;;;;;;10.20;5.20;;;;;;;16.06;80.53;101076.38;5103555;28;20603;-80
2023/10/07 00:36:56;;;;;;;9.60;4.27;;;;;;;16.07;80.51;101083.47;5112473;28;20247;-80
2023/10/07 00:39:31;;;;;;;7.40;4.40;;;;;;;16.12;80.47;101072.34;5113541;28;20218;-80
2023/10/07 00:41:59;;;;;;;10.13;4.10;;;;;;;16.05;80.66;101085.41;5109854;28;20195;-80
2023/10/07 00:44:31;;;;;;;8.37;3.77;;;;;;;16.08;80.61;101069.06;5104518;28;20293;-80
2023/10/07 00:47:12;;;;;;;8.60;4.03;;;;;;;16.09;80.44;101075.28;5106323;28;20245;-79
2023/10/07 00:49:41;;;;;;;8.17;4.30;;;;;;;16.10;80.53;101068.94;5111404;28;20233;-80
2023/10/07 00:52:09;;;;;;;5.63;3.77;;;;;;;16.10;80.31;101082.38;5109111;28;20204;-79
2023/10/07 00:54:50;;;;;;;8.93;4.20;;;;;;;16.11;80.35;101071.50;5113476;28;20197;-79
2023/10/07 00:57:24;;;;;;;8.40;4.63;;;;;;;16.09;80.50;101067.22;5109864;28;20353;-80
2023/10/07 00:59:53;;;;;;;6.80;3.50;;;;;;;16.05;80.72;101065.75;5108602;28;20445;-79
2023/10/07 01:02:30;;;;;;;5.03;3.83;;;;;;;16.09;80.82;101069.91;5112184;28;20686;-79
2023/10/07 01:05:06;;;;;;;6.73;4.30;;;;;;;16.08;80.06;101076.25;5112790;28;20199;-79
2023/10/07 01:07:34;;;;;;;6.77;4.73;;;;;;;16.08;80.64;101069.06;5107189;28;20218;-80
2023/10/07 01:10:11;;;;;;;4.80;3.80;;;;;;;16.10;80.46;101080.53;5104304;28;20272;-78
2023/10/07 01:12:39;;;;;;;8.03;4.60;;;;;;;16.13;80.23;101079.41;5108266;28;20268;-78
2023/10/07 01:15:13;;;;;;;8.27;4.53;;;;;;;16.09;80.45;101073.44;5109302;28;20244;-78
2023/10/07 01:17:43;;;;;;;6.20;4.43;;;;;;;16.09;80.34;101070.75;5110752;28;20213;-78
2023/10/07 01:20:11;;;;;;;9.57;4.73;;;;;;;16.07;80.42;101071.84;5111217;28;20295;-78
2023/10/07 01:22:45;;;;;;;7.83;4.47;;;;;;;16.05;80.57;101074.66;5108546;28;20243;-78
2023/10/07 01:25:18;;;;;;;6.80;4.60;;;;;;;16.07;80.85;101061.09;5107783;28;20372;-78
2023/10/07 01:27:50;;;;;;;6.77;4.70;;;;;;;16.06;80.61;101049.50;5109915;28;20587;-78
2023/10/07 01:30:17;;;;;;;8.30;4.67;;;;;;;16.05;80.80;101057.69;5104442;28;20199;-79
2023/10/07 01:32:57;;;;;;;9.30;5.00;;;;;;;16.04;80.85;101046.09;5106119;28;20231;-78
2023/10/07 01:35:27;;;;;;;9.93;4.73;;;;;;;16.03;80.95;101044.38;5107034;28;20223;-79
2023/10/07 01:38:07;;;;;;;8.43;5.07;;;;;;;16.05;81.10;101046.94;5106140;28;20686;-79
2023/10/07 01:41:04;;;;;;;11.43;5.03;;;;;;;16.05;80.98;101044.25;5110063;28;20203;-78
2023/10/07 01:43:29;;;;;;;6.30;4.20;;;;;;;16.09;80.72;101043.91;5100112;28;20198;-77
2023/10/07 01:45:55;;;;;;;10.70;4.63;;;;;;;16.05;80.92;101030.81;5108214;28;20890;-78
2023/10/07 01:48:22;;;;;;;13.47;4.40;;;;;;;16.06;81.13;101036.06;5108973;28;20199;-78
2023/10/07 01:50:50;;;;;;;6.83;4.60;;;;;;;16.11;80.64;101041.94;5108623;28;20213;-78
2023/10/07 01:53:18;;;;;;;9.30;4.70;;;;;;;16.08;81.13;101038.63;5110357;28;20332;-79
2023/10/07 01:55:45;;;;;;;9.03;4.87;;;;;;;16.10;81.16;101044.75;5100163;28;20254;-79
2023/10/07 01:58:13;;;;;;;8.47;4.90;;;;;;;16.11;80.91;101036.56;5103070;28;20204;-78
2023/10/07 02:00:44;;;;;;;10.70;5.13;;;;;;;16.13;80.96;101039.97;5109449;28;20255;-79
2023/10/07 02:03:14;;;;;;;6.97;4.33;;;;;;;16.12;80.99;101032.03;5108610;28;20206;-80
2023/10/07 02:05:43;;;;;;;9.17;4.23;;;;;;;16.13;81.00;101031.03;5109002;28;20474;-79
2023/10/07 02:08:14;;;;;;;8.40;4.43;;;;;;;16.13;80.81;101039.97;5111277;28;20202;-78
2023/10/07 02:10:42;;;;;;;7.47;4.33;;;;;;;16.08;81.20;101023.38;5108676;28;20211;-79
2023/10/07 02:13:13;;;;;;;9.27;4.40;;;;;;;16.09;80.96;101034.97;5111530;28;20259;-78
2023/10/07 02:15:42;;;;;;;8.80;4.20;;;;;;;16.08;81.05;101044.00;5112658;28;20264;-79
2023/10/07 02:18:12;;;;;;;10.57;5.10;;;;;;;16.08;80.97;101031.44;5102501;28;20208;-79
2023/10/07 02:20:39;;;;;;;6.00;4.03;;;;;;;16.09;80.93;101033.16;5107704;28;20242;-78
2023/10/07 02:23:12;;;;;;;11.50;5.07;;;;;;;16.10;81.02;101037.53;5112879;28;20203;-78
2023/10/07 02:25:42;;;;;;;7.13;4.57;;;;;;;16.09;81.03;101048.41;5111028;28;20261;-78
2023/10/07 02:28:09;;;;;;;7.10;4.07;;;;;;;16.07;81.04;101042.31;5108149;28;20209;-79
2023/10/07 02:30:45;;;;;;;7.10;4.03;;;;;;;16.05;81.35;101034.38;5108871;28;20231;-80
2023/10/07 02:33:13;;;;;;;8.80;4.37;;;;;;;16.05;81.44;101037.03;5108808;28;20288;-80
2023/10/07 02:35:45;;;;;;;9.43;4.43;;;;;;;16.02;81.35;101042.66;5102372;28;20282;-80
2023/10/07 02:38:23;;;;;;;10.40;4.70;;;;;;;16.05;81.32;101041.56;5105398;28;20201;-79
2023/10/07 02:40:51;;;;;;;7.90;4.13;;;;;;;16.08;81.32;101044.00;5105799;28;20202;-80
2023/10/07 02:43:17;;;;;;;5.63;3.60;;;;;;;16.07;81.25;101043.16;5101883;28;20277;-79
2023/10/07 02:45:43;;;;;;;9.67;4.60;;;;;;;16.06;81.40;101033.38;5101693;28;20671;-78
2023/10/07 02:48:11;;;;;;;6.13;3.43;;;;;;;16.06;81.41;101044.13;5096914;28;20216;-78
2023/10/07 02:50:39;;;;;;;8.83;4.60;;;;;;;16.04;81.24;101039.84;5113023;28;20242;-79
2023/10/07 02:53:12;;;;;;;7.43;3.80;;;;;;;16.00;81.54;101041.06;5104309;28;20226;-78
2023/10/07 02:55:47;;;;;;;5.87;3.70;;;;;;;16.02;81.59;101037.28;5106569;28;20238;-79
2023/10/07 02:58:27;;;;;;;7.07;4.10;;;;;;;16.07;81.29;101028.88;5105852;28;20278;-79
2023/10/07 03:00:58;;;;;;;7.27;3.73;;;;;;;16.09;80.97;101034.97;5106447;28;20210;-78
2023/10/07 03:03:38;;;;;;;8.07;3.43;;;;;;;16.05;81.32;101020.94;5103332;28;20225;-78
2023/10/07 03:06:06;;;;;;;7.70;3.80;;;;;;;16.10;81.15;101021.41;5106442;28;20232;-78
2023/10/07 03:08:49;;;;;;;7.07;3.93;;;;;;;16.06;81.57;101016.41;5105660;28;20646;-79
2023/10/07 03:11:22;;;;;;;8.53;4.50;;;;;;;16.04;80.90;101011.16;5107546;28;20693;-78
2023/10/07 03:13:56;;;;;;;10.17;4.57;;;;;;;16.05;81.22;101010.19;5103017;28;20285;-78
2023/10/07 03:16:35;;;;;;;10.00;4.33;;;;;;;16.07;81.14;101010.91;5105207;28;20712;-78
2023/10/07 03:19:07;;;;;;;6.43;3.97;;;;;;;16.06;80.84;101005.66;5106069;28;20224;-79
2023/10/07 03:24:28;;;;;;;6.40;3.67;;;;;;;16.05;80.80;101014.69;5104593;28;20213;-79
2023/10/07 03:27:05;;;;;;;7.10;3.83;;;;;;;16.05;80.70;101012.00;5109730;28;20300;-79
2023/10/07 03:29:36;;;;;;;8.27;3.77;;;;;;;16.06;80.69;101021.78;5101766;28;20613;-78
2023/10/07 03:32:08;;;;;;;8.27;4.80;;;;;;;16.03;80.65;101016.66;5106013;28;20238;-78
2023/10/07 03:34:36;;;;;;;7.83;4.07;;;;;;;16.02;81.05;101004.19;5102864;28;20211;-79
2023/10/07 03:37:15;;;;;;;8.63;3.67;;;;;;;16.04;81.04;101007.63;5103882;28;20434;-78
2023/10/07 03:39:56;;;;;;;7.43;4.57;;;;;;;15.98;80.66;101012.50;5106111;28;20206;-78
2023/10/07 03:42:23;;;;;;;9.50;4.87;;;;;;;15.95;81.05;101014.56;5106011;28;20584;-78
2023/10/07 03:44:51;;;;;;;5.93;4.10;;;;;;;15.92;81.16;101020.22;5098406;28;20205;-80
2023/10/07 03:47:18;;;;;;;6.60;4.10;;;;;;;15.93;81.27;101012.03;5107731;28;20217;-79
2023/10/07 03:49:52;;;;;;;7.27;4.63;;;;;;;15.97;81.59;101016.16;5103745;28;20227;-78
2023/10/07 03:52:27;;;;;;;9.83;4.63;;;;;;;15.93;81.36;101008.50;5107144;28;20291;-79
2023/10/07 03:54:56;;;;;;;8.27;4.53;;;;;;;15.89;81.49;101015.94;5105476;28;20204;-79
2023/10/07 03:57:24;;;;;;;8.77;4.93;;;;;;;15.91;81.65;101016.66;5108505;28;20235;-79
2023/10/07 03:59:53;;;;;;;8.73;5.23;;;;;;;15.90;81.72;101022.16;5102497;28;20215;-78
2023/10/07 04:02:35;;;;;;;8.23;5.13;;;;;;;15.91;82.84;101023.88;5102873;28;20203;-78
2023/10/07 04:05:10;;;;;;;8.37;5.83;;;;;;;15.92;85.03;101031.81;5106800;28;20194;-78
2023/10/07 04:07:35;;;;;;;7.00;5.70;;;;;;;15.89;86.50;101026.69;5107290;28;20221;-79
2023/10/07 04:10:13;;;;;;;7.07;6.13;;;;;;;15.86;87.76;101023.38;5103814;28;20600;-78
2023/10/07 04:12:40;;;;;;;9.43;6.03;;;;;;;15.82;88.97;101030.81;5102537;28;20223;-78
2023/10/07 04:15:12;;;;;;;9.87;7.30;;;;;;;15.75;89.53;101026.91;5108570;28;20299;-78
2023/10/07 04:17:39;;;;;;;9.00;7.60;;;;;;;15.68;90.78;101017.63;5100667;28;20237;-78
2023/10/07 04:20:18;;;;;;;11.60;7.47;;;;;;;15.59;91.12;101012.97;5102371;28;21226;-78
2023/10/07 04:22:44;;;;;;;11.87;7.40;;;;;;;15.55;92.16;101020.44;5100803;28;20195;-78
2023/10/07 04:25:17;;;;;;;8.60;7.33;;;;;;;15.51;92.87;101015.38;5103115;28;20209;-78
2023/10/07 04:27:44;;;;;;;8.17;6.50;;;;;;;15.45;93.07;101011.34;5108033;28;20225;-78
2023/10/07 04:30:14;;;;;;;11.03;8.20;;;;;;;15.42;93.78;101024.13;5104700;28;20205;-78
2023/10/07 04:32:52;;;;;;;10.00;7.47;;;;;;;15.34;94.06;101021.19;5105179;28;20223;-78
2023/10/07 04:35:20;;;;;;;9.07;8.00;;;;;;;15.27;94.71;101020.81;5102131;28;20202;-78
2023/10/07 04:37:54;;;;;;;9.47;7.47;;;;;;;15.23;95.21;101008.59;5108903;28;20203;-77
2023/10/07 04:45:50;;;;;;;11.03;9.07;;;;;;;15.09;96.11;101009.66;5105967;28;20232;-78
2023/10/07 04:48:40;;;;;;;10.23;9.13;;;;;;;15.05;96.77;101013.53;5108427;28;20212;-78
2023/10/07 04:51:12;;;;;;;13.17;10.00;;;;;;;15.01;96.75;100998.69;5101284;28;20281;-78
2023/10/07 04:53:38;;;;;;;11.10;9.50;;;;;;;14.99;97.46;101008.66;5105189;28;20240;-79
2023/10/07 04:56:07;;;;;;;12.00;10.63;;;;;;;14.94;98.11;101022.41;5103162;28;20230;-78
2023/10/07 04:58:32;;;;;;;12.90;11.20;;;;;;;14.92;97.96;101019.00;5106697;28;20565;-78
2023/10/07 05:01:07;;;;;;;15.70;11.63;;;;;;;14.89;98.80;101019.22;5106777;28;20214;-78
2023/10/07 05:03:34;;;;;;;13.07;11.77;;;;;;;14.90;99.06;101026.28;5112926;28;20223;-77
2023/10/07 05:05:59;;;;;;;13.97;11.67;;;;;;;14.87;98.91;101029.19;5111564;28;20223;-77
2023/10/07 05:08:27;;;;;;;15.50;12.80;;;;;;;14.84;99.64;101017.88;5111197;28;20204;-79
2023/10/07 05:10:53;;;;;;;13.77;11.67;;;;;;;14.85;100.00;101020.44;5111001;28;20207;-79
2023/10/07 05:13:20;;;;;;;13.10;11.77;;;;;;;14.85;100.00;101019.59;5108954;28;20223;-80
2023/10/07 05:15:46;;;;;;;13.10;11.80;;;;;;;14.87;99.84;101025.66;5109834;28;20863;-78
2023/10/07 05:18:17;;;;;;;15.73;12.13;;;;;;;14.85;100.00;101030.31;5111861;28;20291;-79
2023/10/07 05:20:46;;;;;;;15.37;13.30;;;;;;;14.84;100.00;101025.91;5108119;28;20234;-79
2023/10/07 05:23:14;;;;;;;16.40;13.43;;;;;;;14.85;100.00;101027.63;5107569;28;20196;-79
2023/10/07 05:25:48;;;;;;;14.33;12.83;;;;;;;14.88;100.00;101022.00;5110475;28;20624;-78
2023/10/07 05:28:17;;;;;;;13.67;12.27;;;;;;;14.89;100.00;101023.72;5104561;28;20228;-78
2023/10/07 05:30:50;;;;;;;17.23;13.97;;;;;;;14.91;100.00;101022.66;5112242;28;20204;-79
2023/10/07 05:33:20;;;;;;;16.00;14.30;;;;;;;14.92;100.00;101026.19;5105651;28;20214;-79
2023/10/07 05:35:49;;;;;;;14.67;13.13;;;;;;;14.90;100.00;101025.44;5108640;28;20271;-78
2023/10/07 05:38:16;;;;;;;16.67;14.87;;;;;;;14.88;100.00;101020.19;5109308;28;20234;-78
2023/10/07 05:40:43;;;;;;;16.87;14.60;;;;;;;14.91;100.00;101013.75;5105994;28;20585;-79
2023/10/07 05:43:10;;;;;;;16.00;14.30;;;;;;;14.91;100.00;101027.16;5107292;28;20616;-78
2023/10/07 05:45:36;;;;;;;17.37;15.40;;;;;;;14.89;100.00;101031.78;5111471;28;20205;-78
2023/10/07 05:48:03;;;;;;;17.83;15.23;;;;;;;14.90;100.00;101017.41;5106869;28;20218;-78
2023/10/07 05:50:32;;;;;;;18.40;14.70;;;;;;;14.89;100.00;101021.91;5108985;28;20666;-78
2023/10/07 05:52:59;;;;;;;16.37;14.70;;;;;;;14.90;100.00;101014.72;5109013;28;20286;-78
2023/10/07 05:55:26;;;;;;;16.80;15.03;;;;;;;14.94;100.00;101026.94;5111659;28;20223;-78
2023/10/07 05:57:53;;;;;;;18.67;15.53;;;;;;;14.96;100.00;101026.81;5106789;28;20208;-78
2023/10/07 06:00:21;;;;;;;18.77;16.00;;;;;;;14.94;100.00;101027.78;5111060;28;20205;-78
2023/10/07 06:02:47;;;;;;;23.00;15.97;;;;;;;14.94;100.00;101032.28;5108318;28;20257;-79
2023/10/07 06:05:14;;;;;;;20.80;16.77;;;;;;;14.97;100.00;101032.06;5108743;28;20696;-79
2023/10/07 06:07:42;;;;;;;21.73;16.73;;;;;;;14.99;100.00;101032.81;5106399;28;20224;-80
2023/10/07 06:10:11;;;;;;;17.13;15.30;;;;;;;14.99;100.00;101032.81;5109449;28;20205;-78
2023/10/07 06:12:38;;;;;;;20.27;16.70;;;;;;;14.96;100.00;101035.72;5109173;28;20656;-79
2023/10/07 06:15:08;;;;;;;20.50;18.33;;;;;;;14.96;100.00;101035.72;5106251;28;20224;-79
2023/10/07 06:17:35;;;;;;;23.57;15.73;;;;;;;14.97;100.00;101025.84;5108030;28;20228;-78
2023/10/07 06:20:13;;;;;;;21.33;17.23;;;;;;;14.99;100.00;101035.50;5107613;28;20208;-78
2023/10/07 06:22:45;;;;;;;20.57;17.03;;;;;;;15.00;100.00;101034.53;5109483;28;20199;-78
2023/10/07 06:25:12;;;;;;;25.80;19.40;;;;;;;15.02;100.00;101037.94;5106937;28;20682;-78
2023/10/07 06:27:42;;;;;;;19.07;16.77;;;;;;;15.01;100.00;101036.22;5107393;28;20233;-79
2023/10/07 06:30:10;;;;;;;24.30;17.43;;;;;;;15.02;100.00;101029.03;5107295;28;20203;-78
2023/10/07 06:32:44;;;;;;;21.70;18.40;;;;;;;15.01;100.00;101041.59;5108274;28;20230;-78
2023/10/07 06:35:13;;;;;;;21.97;16.93;;;;;;;15.01;100.00;101038.91;5112224;28;20244;-78
2023/10/07 06:37:41;;;;;;;23.53;17.97;;;;;;;15.02;100.00;101045.13;5110021;28;20230;-78
2023/10/07 06:40:24;;;;;;;20.30;16.83;;;;;;;15.04;100.00;101037.81;5103751;28;20208;-78
2023/10/07 06:42:51;;;;;;;22.67;16.73;;;;;;;15.08;100.00;101040.13;5102298;28;20279;-78
2023/10/07 06:45:17;;;;;;;23.27;17.87;;;;;;;15.10;100.00;101048.94;5107370;28;20200;-79
2023/10/07 06:47:46;;;;;;;26.77;18.13;;;;;;;15.12;100.00;101046.13;5101998;28;20226;-78
2023/10/07 06:50:18;;;;;;;25.83;17.63;;;;;;;15.11;100.00;101037.22;5103515;28;20237;-78
2023/10/07 06:52:47;;;;;;;23.80;17.80;;;;;;;15.12;100.00;101043.44;5105553;28;20251;-78
2023/10/07 06:55:15;;;;;;;26.07;18.40;;;;;;;15.14;100.00;101034.31;5111965;28;20223;-78
2023/10/07 06:57:42;;;;;;;25.27;18.00;;;;;;;15.17;100.00;101039.47;5105493;28;20220;-79
2023/10/07 07:00:21;;;;;;;26.30;19.70;;;;;;;15.17;100.00;101038.59;5111919;28;20200;-78
2023/10/07 07:02:54;;;;;;;22.43;17.90;;;;;;;15.19;100.00;101037.50;5102140;28;20215;-78
2023/10/07 07:05:22;;;;;;;25.60;18.73;;;;;;;15.19;100.00;101047.41;5103897;28;20656;-80
2023/10/07 07:07:52;;;;;;;23.30;18.37;;;;;;;15.20;100.00;101049.09;5105453;28;20205;-78
2023/10/07 07:10:27;;;;;;;26.37;19.07;;;;;;;15.17;100.00;101039.47;5105825;28;20212;-79
2023/10/07 07:12:58;;;;;;;28.07;18.83;;;;;;;15.21;100.00;101038.25;5110165;28;20196;-78
2023/10/07 07:15:27;;;;;;;24.03;18.20;;;;;;;15.21;100.00;101051.69;5105399;28;20226;-78
2023/10/07 07:18:03;;;;;;;26.40;19.93;;;;;;;15.19;100.00;101048.25;5110253;28;20197;-79
2023/10/07 07:20:48;;;;;;;31.37;20.60;;;;;;;15.22;100.00;101052.53;5110948;28;20207;-79
2023/10/07 07:23:16;;;;;;;29.60;20.37;;;;;;;15.21;100.00;101043.63;5108953;28;20195;-78
2023/10/07 07:25:50;;;;;;;24.90;20.50;;;;;;;15.24;100.00;101050.56;5107131;28;20238;-78
2023/10/07 07:28:18;;;;;;;28.80;19.93;;;;;;;15.26;100.00;101053.97;5108175;28;20660;-78
2023/10/07 07:30:45;;;;;;;27.47;19.10;;;;;;;15.25;100.00;101047.75;5102645;28;20248;-79
2023/10/07 07:33:13;;;;;;;33.07;21.60;;;;;;;15.25;100.00;101045.06;5103891;28;20606;-79
2023/10/07 07:35:43;;;;;;;27.90;20.53;;;;;;;15.31;100.00;101054.50;5103882;28;20671;-80
2023/10/07 07:38:25;;;;;;;27.43;19.57;;;;;;;15.33;100.00;101059.75;5109343;28;20208;-79
2023/10/07 07:41:03;;;;;;;31.60;21.73;;;;;;;15.34;100.00;101061.47;5097183;28;20834;-79
2023/10/07 07:43:29;;;;;;;31.37;21.20;;;;;;;15.35;100.00;101058.66;5108688;28;20258;-79
2023/10/07 07:46:18;;;;;;;27.17;19.53;;;;;;;15.39;100.00;101053.91;5102575;28;20226;-79
2023/10/07 07:48:45;;;;;;;28.83;21.33;;;;;;;15.39;100.00;101057.47;5105426;28;20212;-78
2023/10/07 07:51:15;;;;;;;32.03;21.47;;;;;;;15.41;100.00;101044.75;5111058;28;20214;-80
2023/10/07 07:53:42;;;;;;;27.50;20.87;;;;;;;15.41;100.00;101046.56;5107410;28;20299;-80
2023/10/07 07:56:12;;;;;;;29.97;19.77;;;;;;;15.45;100.00;101043.53;5102056;28;20223;-79
2023/10/07 07:58:39;;;;;;;29.63;20.50;;;;;;;15.48;100.00;101042.44;5103534;28;20722;-79
2023/10/07 08:01:05;;;;;;;27.03;20.87;;;;;;;15.49;100.00;101036.13;5101832;28;20208;-79
2023/10/07 08:03:35;;;;;;;29.20;20.50;;;;;;;15.49;100.00;101036.13;5104225;28;20234;-78
2023/10/07 08:06:02;;;;;;;28.50;21.67;;;;;;;15.52;100.00;101043.94;5105726;28;20226;-79
2023/10/07 08:08:29;;;;;;;31.70;19.57;;;;;;;15.53;100.00;101041.13;5106615;28;20206;-78
2023/10/07 08:10:56;;;;;;;35.40;19.97;;;;;;;15.56;100.00;101043.63;5100462;28;20254;-78
2023/10/07 08:13:27;;;;;;;30.63;20.30;;;;;;;15.57;100.00;101042.66;5105157;28;20233;-79
2023/10/07 08:15:54;;;;;;;28.80;20.23;;;;;;;15.61;100.00;101029.81;5102992;28;20303;-78
2023/10/07 08:18:28;;;;;;;32.53;21.63;;;;;;;15.59;100.00;101024.56;5106186;28;20198;-79
2023/10/07 08:21:06;;;;;;;34.83;19.70;;;;;;;15.66;100.00;101024.09;5108577;28;20246;-79
2023/10/07 08:23:36;;;;;;;30.03;20.80;;;;;;;15.68;100.00;101022.13;5108898;28;20634;-79
2023/10/07 08:26:08;;;;;;;30.00;19.83;;;;;;;15.72;100.00;101032.53;5108184;28;20311;-78
2023/10/07 08:28:42;;;;;;;31.43;20.93;;;;;;;15.73;100.00;101044.13;5103759;28;20207;-78
2023/10/07 08:31:16;;;;;;;27.33;19.80;;;;;;;15.72;100.00;101042.41;5110037;28;20198;-78
2023/10/07 08:33:42;;;;;;;26.97;19.60;;;;;;;15.74;100.00;101049.38;5112970;28;20269;-79
2023/10/07 08:36:09;;;;;;;25.03;18.37;;;;;;;15.78;100.00;101041.91;5107562;28;20230;-78
2023/10/07 08:38:43;;;;;;;26.83;17.77;;;;;;;15.81;100.00;101034.47;5106662;28;20257;-80
2023/10/07 08:41:15;;;;;;;29.23;20.07;;;;;;;15.83;100.00;101042.41;5112710;28;20610;-80
2023/10/07 08:43:45;;;;;;;30.33;18.80;;;;;;;15.85;100.00;101040.47;5106892;28;20226;-80
2023/10/07 08:46:16;;;;;;;27.97;18.67;;;;;;;15.86;100.00;101016.16;5108651;28;20226;-80
2023/10/07 08:48:49;;;;;;;28.50;19.97;;;;;;;15.89;100.00;101017.75;5101303;28;20289;-80
2023/10/07 08:51:21;;;;;;;30.67;20.13;;;;;;;15.90;100.00;101017.66;5100923;28;20340;-80
2023/10/07 08:53:48;;;;;;;27.97;19.43;;;;;;;15.87;100.00;101020.56;5111519;28;20217;-80
2023/10/07 08:56:17;;;;;;;30.70;20.33;;;;;;;15.90;100.00;101023.00;5108501;28;20218;-81
2023/10/07 08:58:48;;;;;;;32.00;19.40;;;;;;;15.91;100.00;101021.19;5110536;28;20287;-81
2023/10/07 09:01:18;;;;;;;26.53;18.87;;;;;;;15.92;100.00;101021.06;5109854;28;20210;-81
2023/10/07 09:03:47;;;;;;;24.67;19.30;;;;;;;15.94;100.00;101018.25;5110926;28;20238;-81
2023/10/07 09:06:14;;;;;;;28.97;18.87;;;;;;;15.97;100.00;101008.09;5109034;28;20915;-80
2023/10/07 09:08:41;;;;;;;30.07;20.47;;;;;;;15.95;100.00;100996.63;5105590;28;20214;-81
2023/10/07 09:11:08;;;;;;;25.23;17.43;;;;;;;15.97;100.00;101008.09;5108326;28;20206;-81
2023/10/07 09:13:36;;;;;;;28.20;18.60;;;;;;;16.00;100.00;100992.72;5107714;28;20703;-80
2023/10/07 09:16:07;;;;;;;27.63;18.90;;;;;;;16.01;100.00;100999.78;5110323;28;20330;-81
2023/10/07 09:18:37;;;;;;;28.70;19.00;;;;;;;16.03;100.00;100987.09;5111880;28;20214;-82
2023/10/07 09:21:09;;;;;;;27.73;17.50;;;;;;;16.03;100.00;100984.41;5112581;28;20201;-81
2023/10/07 09:23:43;;;;;;;28.60;17.93;;;;;;;16.07;100.00;100991.25;5110478;28;20198;-81
2023/10/07 09:26:16;;;;;;;22.83;16.43;;;;;;;16.10;100.00;100989.19;5112742;28;20303;-83
2023/10/07 09:28:46;;;;;;;28.50;18.30;;;;;;;16.16;100.00;100993.19;5114974;28;20204;-82
2023/10/07 09:31:16;;;;;;;26.70;17.70;;;;;;;16.19;100.00;100995.63;5102190;28;20226;-81
2023/10/07 09:33:45;;;;;;;25.30;17.77;;;;;;;16.24;100.00;100996.97;5113596;28;20285;-81
2023/10/07 09:36:33;;;;;;;25.53;16.60;;;;;;;16.29;100.00;101008.22;5110614;28;20238;-81
2023/10/07 09:39:31;;;;;;;29.03;17.03;;;;;;;16.37;100.00;100991.44;5110605;28;20203;-81
2023/10/07 09:42:04;;;;;;;24.60;17.47;;;;;;;16.43;100.00;100996.31;5111896;28;20538;-81
2023/10/07 09:44:31;;;;;;;22.50;16.47;;;;;;;16.48;100.00;100966.38;5112027;28;20216;-81
2023/10/07 09:47:03;;;;;;;25.33;16.20;;;;;;;16.52;100.00;100982.09;5113412;28;20241;-81
2023/10/07 09:49:32;;;;;;;22.00;14.97;;;;;;;16.58;100.00;100970.00;5117043;28;20185;-83
2023/10/07 09:52:15;;;;;;;20.93;14.43;;;;;;;16.61;100.00;100975.97;5106747;28;20202;-82
2023/10/07 09:55:18;;;;;;;24.20;15.00;;;;;;;16.65;100.00;100980.16;5095799;28;20247;-83
2023/10/07 09:57:55;;;;;;;23.03;14.60;;;;;;;16.73;100.00;100962.50;5093858;28;20317;-82
2023/10/07 10:00:41;;;;;;;24.00;14.73;;;;;;;16.80;100.00;100979.84;5093979;28;20192;-82
2023/10/07 10:03:36;;;;;;;23.63;14.93;;;;;;;16.88;100.00;100962.06;5094951;28;20285;-82
2023/10/07 10:06:16;;;;;;;24.47;15.03;;;;;;;16.94;99.87;100971.44;5095109;28;20689;-82
2023/10/07 10:09:09;;;;;;;19.30;14.10;;;;;;;16.99;99.36;100980.00;5094812;28;20195;-81
2023/10/07 10:11:46;;;;;;;20.17;14.33;;;;;;;17.08;98.77;100983.72;5093888;28;20193;-82
2023/10/07 10:14:26;;;;;;;17.97;13.60;;;;;;;17.12;97.96;100980.66;5094729;28;20630;-81
2023/10/07 10:16:57;;;;;;;20.80;14.57;;;;;;;17.20;97.09;100993.44;5094168;28;20240;-82
2023/10/07 10:19:37;;;;;;;19.97;13.37;;;;;;;17.24;96.92;100997.56;5093192;28;20196;-82
2023/10/07 10:22:10;;;;;;;20.20;13.87;;;;;;;17.31;96.30;100996.06;5094212;28;20205;-81
2023/10/07 10:24:42;;;;;;;18.23;13.20;;;;;;;17.38;96.48;101005.31;5093346;28;20205;-82
2023/10/07 10:27:10;;;;;;;17.37;13.40;;;;;;;17.44;95.92;100995.88;5092984;28;20226;-80
2023/10/07 10:29:52;;;;;;;16.77;12.93;;;;;;;17.49;95.05;101002.56;5092418;28;20205;-81
2023/10/07 10:32:28;;;;;;;15.10;12.40;;;;;;;17.60;94.27;100996.22;5092435;28;20317;-81
2023/10/07 10:34:56;;;;;;;18.13;12.20;;;;;;;17.65;93.94;100985.94;5092346;28;20304;-80
2023/10/07 10:37:26;;;;;;;16.30;12.17;;;;;;;17.73;93.48;100991.53;5091092;28;20228;-81
2023/10/07 10:39:53;;;;;;;18.60;11.60;;;;;;;17.80;92.62;100981.06;5092009;28;20315;-81
2023/10/07 10:42:20;;;;;;;13.93;10.70;;;;;;;17.84;91.91;100977.09;5092622;28;20203;-81
2023/10/07 10:44:48;;;;;;;15.57;10.97;;;;;;;17.90;91.39;100987.34;5091960;28;20198;-81
2023/10/07 10:47:16;;;;;;;16.43;11.40;;;;;;;17.93;91.30;100981.66;5092026;28;20249;-81
2023/10/07 10:49:44;;;;;;;13.57;10.57;;;;;;;17.97;91.17;100978.56;5091375;28;20266;-81
2023/10/07 10:52:13;;;;;;;14.93;11.77;;;;;;;18.04;90.91;100989.66;5091435;28;20186;-80
2023/10/07 10:54:40;;;;;;;14.23;11.60;;;;;;;18.15;90.81;100988.69;5091200;28;20243;-81
2023/10/07 10:57:07;;;;;;;17.47;11.00;;;;;;;18.21;90.15;100996.25;5091386;28;20226;-83
2023/10/07 10:59:42;;;;;;;13.43;10.33;;;;;;;18.27;90.04;101001.09;5092396;28;20237;-81
2023/10/07 11:02:09;;;;;;;11.20;10.00;;;;;;;18.38;88.90;100995.56;5095932;28;20285;-82
2023/10/07 11:04:36;;;;;;;12.20;10.30;;;;;;;18.44;87.46;101003.13;5112671;28;20205;-81
2023/10/07 11:07:04;;;;;;;16.33;11.03;;;;;;;18.51;87.19;101006.09;5112212;28;20230;-81
2023/10/07 11:09:37;;;;;;;13.90;10.67;;;;;;;18.54;86.83;101012.06;5105715;28;20256;-81
2023/10/07 11:12:09;;;;;;;13.03;9.87;;;;;;;18.57;86.29;100998.31;5091297;28;20187;-81
2023/10/07 11:14:38;;;;;;;13.10;11.63;;;;;;;18.58;85.88;101001.84;5099031;28;20261;-81
2023/10/07 11:17:05;;;;;;;14.07;11.17;;;;;;;18.60;85.61;101000.75;5111778;28;20237;-83
2023/10/07 11:19:32;;;;;;;12.63;11.10;;;;;;;18.64;85.60;101007.56;5113175;28;20366;-82
2023/10/07 11:21:59;;;;;;;13.53;11.93;;;;;;;18.63;85.30;100999.63;5112290;28;20211;-82
2023/10/07 11:24:27;;;;;;;16.33;12.10;;;;;;;18.66;85.46;101002.03;5111678;28;20222;-82
2023/10/07 11:26:57;;;;;;;14.80;12.73;;;;;;;18.67;85.23;101007.28;5112023;28;20234;-82
2023/10/07 11:29:29;;;;;;;14.57;12.70;;;;;;;18.70;85.09;101003.44;5111873;28;20211;-82
2023/10/07 11:32:00;;;;;;;13.33;11.93;;;;;;;18.68;85.05;101005.44;5111985;28;20191;-81
2023/10/07 11:34:36;;;;;;;18.73;12.53;;;;;;;18.72;84.82;100994.22;5110780;28;20210;-81
2023/10/07 11:37:13;;;;;;;13.27;11.90;;;;;;;18.75;85.13;101001.19;5092600;28;20276;-82
2023/10/07 11:39:44;;;;;;;19.17;14.30;;;;;;;18.78;85.17;100990.13;5101658;28;20311;-82